sensor_id;sensor_type;location;lat;lon;timestamp;pressure;altitude;pressure_sealevel;temperature;humidity
70407;BME280;57821;52.202;0.154;2023-01-08T00:01:10;99630.03;;;7.06;96.90
70407;BME280;57821;52.202;0.154;2023-01-08T00:03:37;99626.59;;;7.07;95.57
70407;BME280;57821;52.202;0.154;2023-01-08T00:06:07;99636.03;;;7.10;95.52
70407;BME280;57821;52.202;0.154;2023-01-08T00:08:36;99618.00;;;7.05;96.02
70407;BME280;57821;52.202;0.154;2023-01-08T00:11:03;99612.84;;;7.07;96.10
70407;BME280;57821;52.202;0.154;2023-01-08T00:13:29;99611.13;;;7.07;95.45
70407;BME280;57821;52.202;0.154;2023-01-08T00:15:56;99627.38;;;7.18;95.78
70407;BME280;57821;52.202;0.154;2023-01-08T00:18:27;99606.78;;;7.15;96.05
70407;BME280;57821;52.202;0.154;2023-01-08T00:20:54;99586.22;;;7.08;94.63
70407;BME280;57821;52.202;0.154;2023-01-08T00:23:21;99598.09;;;7.22;93.88
70407;BME280;57821;52.202;0.154;2023-01-08T00:25:47;99614.44;;;7.24;95.77
70407;BME280;57821;52.202;0.154;2023-01-08T00:28:14;99605.84;;;7.25;95.20
70407;BME280;57821;52.202;0.154;2023-01-08T00:30:41;99596.38;;;7.26;96.05
70407;BME280;57821;52.202;0.154;2023-01-08T00:33:09;99596.44;;;7.20;95.36
70407;BME280;57821;52.202;0.154;2023-01-08T00:35:41;99605.84;;;7.22;95.69
70407;BME280;57821;52.202;0.154;2023-01-08T00:38:08;99603.31;;;7.18;95.63
70407;BME280;57821;52.202;0.154;2023-01-08T00:40:35;99601.53;;;7.27;95.20
70407;BME280;57821;52.202;0.154;2023-01-08T00:43:02;99593.84;;;7.18;95.83
70407;BME280;57821;52.202;0.154;2023-01-08T00:45:29;99578.34;;;7.24;96.38
70407;BME280;57821;52.202;0.154;2023-01-08T00:47:57;99596.34;;;7.29;95.47
70407;BME280;57821;52.202;0.154;2023-01-08T00:50:24;99584.28;;;7.32;95.47
70407;BME280;57821;52.202;0.154;2023-01-08T00:52:51;99586.88;;;7.32;95.48
70407;BME280;57821;52.202;0.154;2023-01-08T00:55:18;99584.25;;;7.35;96.52
70407;BME280;57821;52.202;0.154;2023-01-08T00:57:44;99588.53;;;7.39;96.17
70407;BME280;57821;52.202;0.154;2023-01-08T01:00:14;99586.78;;;7.41;96.13
70407;BME280;57821;52.202;0.154;2023-01-08T01:02:40;99572.19;;;7.39;95.81
70407;BME280;57821;52.202;0.154;2023-01-08T01:05:08;99571.34;;;7.35;96.08
70407;BME280;57821;52.202;0.154;2023-01-08T01:07:35;99576.50;;;7.35;95.92
70407;BME280;57821;52.202;0.154;2023-01-08T01:10:02;99580.75;;;7.44;96.20
70407;BME280;57821;52.202;0.154;2023-01-08T01:12:28;99583.28;;;7.46;95.13
70407;BME280;57821;52.202;0.154;2023-01-08T01:14:55;99573.88;;;7.43;96.12
70407;BME280;57821;52.202;0.154;2023-01-08T01:17:22;99563.63;;;7.37;96.53
70407;BME280;57821;52.202;0.154;2023-01-08T01:19:48;99567.91;;;7.39;96.52
70407;BME280;57821;52.202;0.154;2023-01-08T01:22:15;99575.59;;;7.42;95.83
70407;BME280;57821;52.202;0.154;2023-01-08T01:24:42;99583.22;;;7.52;95.92
70407;BME280;57821;52.202;0.154;2023-01-08T01:27:09;99593.53;;;7.52;96.58
70407;BME280;57821;52.202;0.154;2023-01-08T01:29:35;99596.16;;;7.47;96.49
70407;BME280;57821;52.202;0.154;2023-01-08T01:32:02;99586.72;;;7.48;96.47
70407;BME280;57821;52.202;0.154;2023-01-08T01:34:29;99589.34;;;7.41;96.08
70407;BME280;57821;52.202;0.154;2023-01-08T01:36:55;99607.34;;;7.48;95.63
70407;BME280;57821;52.202;0.154;2023-01-08T01:39:22;99609.06;;;7.49;96.36
70407;BME280;57821;52.202;0.154;2023-01-08T01:41:48;99604.81;;;7.45;96.46
70407;BME280;57821;52.202;0.154;2023-01-08T01:47:27;99606.50;;;7.46;96.91
70407;BME280;57821;52.202;0.154;2023-01-08T01:52:26;99589.41;;;7.37;96.02
70407;BME280;57821;52.202;0.154;2023-01-08T01:54:56;99590.19;;;7.43;96.27
70407;BME280;57821;52.202;0.154;2023-01-08T01:57:24;99590.22;;;7.40;96.98
70407;BME280;57821;52.202;0.154;2023-01-08T01:59:52;99571.41;;;7.32;96.40
70407;BME280;57821;52.202;0.154;2023-01-08T02:02:19;99588.53;;;7.39;96.55
70407;BME280;57821;52.202;0.154;2023-01-08T02:04:49;99590.19;;;7.43;96.59
70407;BME280;57821;52.202;0.154;2023-01-08T02:07:41;99581.59;;;7.45;96.69
70407;BME280;57821;52.202;0.154;2023-01-08T02:10:20;99585.06;;;7.40;96.08
70407;BME280;57821;52.202;0.154;2023-01-08T02:13:04;99573.06;;;7.39;96.83
70407;BME280;57821;52.202;0.154;2023-01-08T02:15:46;99572.19;;;7.39;96.71
70407;BME280;57821;52.202;0.154;2023-01-08T02:18:19;99572.16;;;7.42;97.05
70407;BME280;57821;52.202;0.154;2023-01-08T02:20:53;99567.91;;;7.39;96.34
70407;BME280;57821;52.202;0.154;2023-01-08T02:29:10;99563.63;;;7.35;96.61
70407;BME280;57821;52.202;0.154;2023-01-08T02:31:41;99568.72;;;7.40;96.25
70407;BME280;57821;52.202;0.154;2023-01-08T02:34:10;99567.91;;;7.39;96.03
70407;BME280;57821;52.202;0.154;2023-01-08T02:36:45;99566.16;;;7.40;96.66
70407;BME280;57821;52.202;0.154;2023-01-08T02:47:34;99568.66;;;7.48;95.25
70407;BME280;57821;52.202;0.154;2023-01-08T02:53:10;99552.28;;;7.52;96.46
70407;BME280;57821;52.202;0.154;2023-01-08T02:55:41;99549.72;;;7.50;96.33
70407;BME280;57821;52.202;0.154;2023-01-08T02:58:10;99554.03;;;7.51;96.33
70407;BME280;57821;52.202;0.154;2023-01-08T03:00:39;99552.25;;;7.55;95.92
70407;BME280;57821;52.202;0.154;2023-01-08T03:03:20;99544.53;;;7.53;96.47
70407;BME280;57821;52.202;0.154;2023-01-08T03:05:50;99565.91;;;7.66;95.00
70407;BME280;57821;52.202;0.154;2023-01-08T03:08:18;99558.22;;;7.61;95.71
70407;BME280;57821;52.202;0.154;2023-01-08T03:10:50;99547.84;;;7.64;95.59
70407;BME280;57821;52.202;0.154;2023-01-08T03:13:26;99552.13;;;7.67;95.78
70407;BME280;57821;52.202;0.154;2023-01-08T03:15:58;99563.25;;;7.72;95.40
70407;BME280;57821;52.202;0.154;2023-01-08T03:18:32;99551.22;;;7.71;95.33
70407;BME280;57821;52.202;0.154;2023-01-08T03:21:02;99548.63;;;7.71;93.93
70407;BME280;57821;52.202;0.154;2023-01-08T03:23:32;99558.94;;;7.71;93.47
70407;BME280;57821;52.202;0.154;2023-01-08T03:26:01;99558.88;;;7.77;93.37
70407;BME280;57821;52.202;0.154;2023-01-08T03:28:34;99564.03;;;7.80;92.73
70407;BME280;57821;52.202;0.154;2023-01-08T03:31:04;99550.28;;;7.78;93.66
70407;BME280;57821;52.202;0.154;2023-01-08T03:33:32;99556.25;;;7.83;93.49
70407;BME280;57821;52.202;0.154;2023-01-08T03:36:00;99551.94;;;7.80;94.08
70407;BME280;57821;52.202;0.154;2023-01-08T03:38:35;99557.16;;;7.79;93.68
70407;BME280;57821;52.202;0.154;2023-01-08T03:41:06;99544.28;;;7.76;94.09
70407;BME280;57821;52.202;0.154;2023-01-08T03:43:35;99539.97;;;7.75;93.23
70407;BME280;57821;52.202;0.154;2023-01-08T03:46:04;99529.72;;;7.70;93.23
70407;BME280;57821;52.202;0.154;2023-01-08T03:48:34;99546.84;;;7.79;93.64
70407;BME280;57821;52.202;0.154;2023-01-08T03:51:02;99540.81;;;7.80;93.16
70407;BME280;57821;52.202;0.154;2023-01-08T03:53:28;99544.22;;;7.80;93.14
70407;BME280;57821;52.202;0.154;2023-01-08T03:55:56;99546.78;;;7.82;94.43
70407;BME280;57821;52.202;0.154;2023-01-08T03:58:23;99530.47;;;7.80;94.13
70407;BME280;57821;52.202;0.154;2023-01-08T04:00:50;99531.31;;;7.80;93.24
70407;BME280;57821;52.202;0.154;2023-01-08T04:03:17;99533.06;;;7.80;93.56
70407;BME280;57821;52.202;0.154;2023-01-08T04:05:43;99539.88;;;7.86;92.76
70407;BME280;57821;52.202;0.154;2023-01-08T04:08:10;99527.91;;;7.77;93.10
70407;BME280;57821;52.202;0.154;2023-01-08T04:10:37;99546.69;;;7.91;93.52
70407;BME280;57821;52.202;0.154;2023-01-08T04:13:03;99543.22;;;7.92;93.11
70407;BME280;57821;52.202;0.154;2023-01-08T04:15:30;99525.19;;;7.91;92.52
70407;BME280;57821;52.202;0.154;2023-01-08T04:17:56;99512.38;;;7.83;92.42
70407;BME280;57821;52.202;0.154;2023-01-08T04:20:23;99530.28;;;7.95;92.62
70407;BME280;57821;52.202;0.154;2023-01-08T04:22:49;99532.00;;;7.96;91.78
70407;BME280;57821;52.202;0.154;2023-01-08T04:25:16;99525.09;;;7.97;92.04
70407;BME280;57821;52.202;0.154;2023-01-08T04:27:43;99518.25;;;7.93;91.28
70407;BME280;57821;52.202;0.154;2023-01-08T04:30:10;99526.81;;;7.98;90.58
70407;BME280;57821;52.202;0.154;2023-01-08T04:32:37;99531.91;;;8.02;91.38
70407;BME280;57821;52.202;0.154;2023-01-08T04:35:03;99530.16;;;8.04;91.43
70407;BME280;57821;52.202;0.154;2023-01-08T04:37:30;99521.63;;;7.99;90.89
70407;BME280;57821;52.202;0.154;2023-01-08T04:39:57;99530.22;;;8.00;90.27
70407;BME280;57821;52.202;0.154;2023-01-08T04:42:23;99517.38;;;7.97;91.02
70407;BME280;57821;52.202;0.154;2023-01-08T04:44:50;99506.28;;;7.87;90.93
70407;BME280;57821;52.202;0.154;2023-01-08T04:47:16;99514.03;;;7.87;90.57
70407;BME280;57821;52.202;0.154;2023-01-08T04:49:43;99496.09;;;7.76;90.84
70407;BME280;57821;52.202;0.154;2023-01-08T04:52:09;99503.84;;;7.75;91.57
70407;BME280;57821;52.202;0.154;2023-01-08T04:54:36;99503.06;;;7.71;91.12
70407;BME280;57821;52.202;0.154;2023-01-08T04:57:02;99484.34;;;7.54;90.62
70407;BME280;57821;52.202;0.154;2023-01-08T04:59:29;99494.59;;;7.60;91.42
70407;BME280;57821;52.202;0.154;2023-01-08T05:01:56;99500.69;;;7.52;91.26
70407;BME280;57821;52.202;0.154;2023-01-08T05:04:23;99498.16;;;7.49;91.08
70407;BME280;57821;52.202;0.154;2023-01-08T05:06:49;99505.91;;;7.46;91.60
70407;BME280;57821;52.202;0.154;2023-01-08T05:09:16;99507.69;;;7.40;90.56
70407;BME280;57821;52.202;0.154;2023-01-08T05:11:42;99512.03;;;7.37;90.97
70407;BME280;57821;52.202;0.154;2023-01-08T05:14:09;99494.06;;;7.29;91.30
70407;BME280;57821;52.202;0.154;2023-01-08T05:16:36;99500.94;;;7.30;91.22
70407;BME280;57821;52.202;0.154;2023-01-08T05:19:02;99502.72;;;7.25;91.89
70407;BME280;57821;52.202;0.154;2023-01-08T05:21:29;99506.19;;;7.21;91.04
70407;BME280;57821;52.202;0.154;2023-01-08T05:23:56;99502.72;;;7.22;91.07
70407;BME280;57821;52.202;0.154;2023-01-08T05:26:22;99491.59;;;7.17;91.82
70407;BME280;57821;52.202;0.154;2023-01-08T05:28:49;99490.00;;;7.09;91.05
70407;BME280;57821;52.202;0.154;2023-01-08T05:31:15;99485.69;;;7.09;91.44
70407;BME280;57821;52.202;0.154;2023-01-08T05:33:42;99486.53;;;7.10;91.54
70407;BME280;57821;52.202;0.154;2023-01-08T05:36:10;99482.25;;;7.10;91.97
70407;BME280;57821;52.202;0.154;2023-01-08T05:38:38;99489.97;;;7.10;90.36
70407;BME280;57821;52.202;0.154;2023-01-08T05:41:05;99465.13;;;7.00;91.27
70407;BME280;57821;52.202;0.154;2023-01-08T05:43:32;99477.16;;;7.04;91.25
70407;BME280;57821;52.202;0.154;2023-01-08T05:46:00;99468.56;;;7.00;91.01
70407;BME280;57821;52.202;0.154;2023-01-08T05:48:28;99466.00;;;7.02;91.18
70407;BME280;57821;52.202;0.154;2023-01-08T05:50:55;99476.31;;;6.99;91.58
70407;BME280;57821;52.202;0.154;2023-01-08T05:53:22;99465.19;;;6.97;91.51
70407;BME280;57821;52.202;0.154;2023-01-08T05:55:48;99472.06;;;6.98;91.84
70407;BME280;57821;52.202;0.154;2023-01-08T05:58:15;99453.22;;;6.90;91.62
70407;BME280;57821;52.202;0.154;2023-01-08T06:00:42;99466.91;;;6.95;91.28
70407;BME280;57821;52.202;0.154;2023-01-08T06:03:08;99460.94;;;6.93;91.15
70407;BME280;57821;52.202;0.154;2023-01-08T06:05:35;99465.19;;;6.95;91.30
70407;BME280;57821;52.202;0.154;2023-01-08T06:08:02;99467.78;;;6.94;91.13
70407;BME280;57821;52.202;0.154;2023-01-08T06:10:28;99474.66;;;6.95;91.01
70407;BME280;57821;52.202;0.154;2023-01-08T06:12:55;99469.50;;;6.93;90.55
70407;BME280;57821;52.202;0.154;2023-01-08T06:15:21;99467.81;;;6.91;91.05
70407;BME280;57821;52.202;0.154;2023-01-08T06:17:48;99481.56;;;6.90;90.76
70407;BME280;57821;52.202;0.154;2023-01-08T06:20:15;99473.88;;;6.87;91.50
70407;BME280;57821;52.202;0.154;2023-01-08T06:22:41;99468.72;;;6.87;90.78
70407;BME280;57821;52.202;0.154;2023-01-08T06:25:08;99468.72;;;6.87;90.16
70407;BME280;57821;52.202;0.154;2023-01-08T06:27:35;99475.59;;;6.85;90.47
70407;BME280;57821;52.202;0.154;2023-01-08T06:30:01;99474.75;;;6.83;90.09
70407;BME280;57821;52.202;0.154;2023-01-08T06:32:28;99476.50;;;6.81;90.02
70407;BME280;57821;52.202;0.154;2023-01-08T06:34:54;99476.50;;;6.79;90.67
70407;BME280;57821;52.202;0.154;2023-01-08T06:37:21;99468.84;;;6.75;90.04
70407;BME280;57821;52.202;0.154;2023-01-08T06:39:47;99470.59;;;6.70;89.59
70407;BME280;57821;52.202;0.154;2023-01-08T06:42:14;99472.28;;;6.71;89.69
70407;BME280;57821;52.202;0.154;2023-01-08T06:44:40;99463.69;;;6.75;89.62
70407;BME280;57821;52.202;0.154;2023-01-08T06:47:07;99460.22;;;6.76;89.92
70407;BME280;57821;52.202;0.154;2023-01-08T06:49:33;99455.94;;;6.75;89.84
70407;BME280;57821;52.202;0.154;2023-01-08T06:52:00;99459.34;;;6.77;89.34
70407;BME280;57821;52.202;0.154;2023-01-08T06:54:26;99465.38;;;6.76;89.85
70407;BME280;57821;52.202;0.154;2023-01-08T06:56:53;99448.22;;;6.72;89.59
70407;BME280;57821;52.202;0.154;2023-01-08T06:59:20;99450.75;;;6.76;89.67
70407;BME280;57821;52.202;0.154;2023-01-08T07:01:47;99446.53;;;6.71;89.64
70407;BME280;57821;52.202;0.154;2023-01-08T07:04:14;99450.81;;;6.75;89.32
70407;BME280;57821;52.202;0.154;2023-01-08T07:06:41;99449.09;;;6.74;89.77
70407;BME280;57821;52.202;0.154;2023-01-08T07:09:11;99452.53;;;6.71;89.66
70407;BME280;57821;52.202;0.154;2023-01-08T07:11:39;99443.94;;;6.71;89.74
70407;BME280;57821;52.202;0.154;2023-01-08T07:14:06;99443.97;;;6.69;89.09
70407;BME280;57821;52.202;0.154;2023-01-08T07:16:33;99446.56;;;6.68;89.68
70407;BME280;57821;52.202;0.154;2023-01-08T07:18:59;99429.50;;;6.56;89.45
70407;BME280;57821;52.202;0.154;2023-01-08T07:21:26;99438.03;;;6.63;89.13
70407;BME280;57821;52.202;0.154;2023-01-08T07:23:52;99426.03;;;6.58;89.09
70407;BME280;57821;52.202;0.154;2023-01-08T07:26:19;99433.75;;;6.60;88.98
70407;BME280;57821;52.202;0.154;2023-01-08T07:28:45;99426.91;;;6.57;89.44
70407;BME280;57821;52.202;0.154;2023-01-08T07:31:12;99416.66;;;6.51;89.71
70407;BME280;57821;52.202;0.154;2023-01-08T07:33:38;99444.00;;;6.65;90.26
70407;BME280;57821;52.202;0.154;2023-01-08T07:36:05;99441.41;;;6.65;89.32
70407;BME280;57821;52.202;0.154;2023-01-08T07:38:32;99434.53;;;6.67;89.77
70407;BME280;57821;52.202;0.154;2023-01-08T07:40:58;99437.13;;;6.70;89.63
70407;BME280;57821;52.202;0.154;2023-01-08T07:43:25;99444.75;;;6.79;89.36
70407;BME280;57821;52.202;0.154;2023-01-08T07:45:51;99439.59;;;6.79;89.52
70407;BME280;57821;52.202;0.154;2023-01-08T07:48:18;99434.38;;;6.82;89.03
70407;BME280;57821;52.202;0.154;2023-01-08T07:50:45;99430.94;;;6.83;89.18
70407;BME280;57821;52.202;0.154;2023-01-08T07:53:12;99445.53;;;6.87;88.23
70407;BME280;57821;52.202;0.154;2023-01-08T07:55:39;99425.91;;;6.74;88.28
70407;BME280;57821;52.202;0.154;2023-01-08T07:58:07;99440.44;;;6.81;88.49
70407;BME280;57821;52.202;0.154;2023-01-08T08:00:34;99443.88;;;6.81;88.86
70407;BME280;57821;52.202;0.154;2023-01-08T08:03:05;99424.19;;;6.73;87.79
70407;BME280;57821;52.202;0.154;2023-01-08T08:05:32;99413.09;;;6.66;88.07
70407;BME280;57821;52.202;0.154;2023-01-08T08:07:59;99429.38;;;6.70;88.26
70407;BME280;57821;52.202;0.154;2023-01-08T08:10:26;99410.56;;;6.58;88.35
70407;BME280;57821;52.202;0.154;2023-01-08T08:12:53;99404.59;;;6.58;88.77
70407;BME280;57821;52.202;0.154;2023-01-08T08:15:19;99414.00;;;6.60;88.94
70407;BME280;57821;52.202;0.154;2023-01-08T08:17:47;99405.44;;;6.57;88.24
70407;BME280;57821;52.202;0.154;2023-01-08T08:20:14;99396.88;;;6.55;89.05
70407;BME280;57821;52.202;0.154;2023-01-08T08:22:41;99396.91;;;6.52;88.53
70407;BME280;57821;52.202;0.154;2023-01-08T08:25:08;99394.34;;;6.50;89.07
70407;BME280;57821;52.202;0.154;2023-01-08T08:27:34;99406.38;;;6.50;89.35
70407;BME280;57821;52.202;0.154;2023-01-08T08:30:01;99389.25;;;6.46;89.03
70407;BME280;57821;52.202;0.154;2023-01-08T08:32:27;99397.78;;;6.48;88.45
70407;BME280;57821;52.202;0.154;2023-01-08T08:34:54;99398.69;;;6.45;88.37
70407;BME280;57821;52.202;0.154;2023-01-08T08:37:21;99381.59;;;6.38;89.12
70407;BME280;57821;52.202;0.154;2023-01-08T08:39:47;99394.41;;;6.46;88.82
70407;BME280;57821;52.202;0.154;2023-01-08T08:42:13;99394.41;;;6.44;89.23
70407;BME280;57821;52.202;0.154;2023-01-08T08:44:40;99406.38;;;6.47;88.79
70407;BME280;57821;52.202;0.154;2023-01-08T08:47:08;99402.09;;;6.47;88.53
70407;BME280;57821;52.202;0.154;2023-01-08T08:49:35;99402.09;;;6.47;88.90
70407;BME280;57821;52.202;0.154;2023-01-08T08:52:03;99412.38;;;6.50;88.27
70407;BME280;57821;52.202;0.154;2023-01-08T08:54:30;99405.50;;;6.49;88.23
70407;BME280;57821;52.202;0.154;2023-01-08T08:56:56;99403.78;;;6.51;88.17
70407;BME280;57821;52.202;0.154;2023-01-08T08:59:23;99402.88;;;6.54;88.33
70407;BME280;57821;52.202;0.154;2023-01-08T09:01:49;99393.50;;;6.48;88.48
70407;BME280;57821;52.202;0.154;2023-01-08T09:04:16;99407.13;;;6.59;88.40
70407;BME280;57821;52.202;0.154;2023-01-08T09:06:42;99408.00;;;6.58;88.64
70407;BME280;57821;52.202;0.154;2023-01-08T09:09:09;99391.69;;;6.59;88.25
70407;BME280;57821;52.202;0.154;2023-01-08T09:11:35;99390.81;;;6.64;89.24
70407;BME280;57821;52.202;0.154;2023-01-08T09:14:02;99388.19;;;6.68;88.19
70407;BME280;57821;52.202;0.154;2023-01-08T09:16:28;99388.06;;;6.76;88.74
70407;BME280;57821;52.202;0.154;2023-01-08T09:18:55;99368.38;;;6.75;88.72
70407;BME280;57821;52.202;0.154;2023-01-08T09:21:21;99381.13;;;6.87;87.97
70407;BME280;57821;52.202;0.154;2023-01-08T09:23:48;99366.41;;;6.93;88.19
70407;BME280;57821;52.202;0.154;2023-01-08T09:26:14;99363.78;;;7.01;88.38
70407;BME280;57821;52.202;0.154;2023-01-08T09:28:41;99357.66;;;7.10;88.39
70407;BME280;57821;52.202;0.154;2023-01-08T09:31:08;99354.09;;;7.20;88.40
70407;BME280;57821;52.202;0.154;2023-01-08T09:33:35;99360.66;;;7.45;89.53
70407;BME280;57821;52.202;0.154;2023-01-08T09:36:01;99363.75;;;7.70;89.74
70407;BME280;57821;52.202;0.154;2023-01-08T09:38:28;99362.50;;;7.95;90.12
70407;BME280;57821;52.202;0.154;2023-01-08T09:41:10;99358.53;;;8.30;88.63
70407;BME280;57821;52.202;0.154;2023-01-08T09:43:41;99356.41;;;8.56;88.42
70407;BME280;57821;52.202;0.154;2023-01-08T09:46:08;99343.06;;;8.79;88.45
70407;BME280;57821;52.202;0.154;2023-01-08T09:48:39;99362.16;;;9.15;88.09
70407;BME280;57821;52.202;0.154;2023-01-08T09:51:17;99351.16;;;9.46;87.62
70407;BME280;57821;52.202;0.154;2023-01-08T09:53:45;99346.06;;;9.80;86.67
70407;BME280;57821;52.202;0.154;2023-01-08T09:56:16;99340.25;;;10.08;85.07
70407;BME280;57821;52.202;0.154;2023-01-08T09:58:53;99344.22;;;10.24;82.41
70407;BME280;57821;52.202;0.154;2023-01-08T10:01:27;99342.13;;;10.38;83.03
70407;BME280;57821;52.202;0.154;2023-01-08T10:04:09;99347.84;;;10.51;82.31
70407;BME280;57821;52.202;0.154;2023-01-08T10:06:39;99323.69;;;10.49;82.17
70407;BME280;57821;52.202;0.154;2023-01-08T10:09:11;99327.84;;;10.56;80.68
70407;BME280;57821;52.202;0.154;2023-01-08T10:11:42;99331.09;;;10.64;81.47
70407;BME280;57821;52.202;0.154;2023-01-08T10:14:20;99334.28;;;10.74;80.53
70407;BME280;57821;52.202;0.154;2023-01-08T10:16:55;99323.75;;;10.80;80.96
70407;BME280;57821;52.202;0.154;2023-01-08T10:19:23;99332.88;;;10.94;81.07
70407;BME280;57821;52.202;0.154;2023-01-08T10:21:50;99325.03;;;10.96;79.71
70407;BME280;57821;52.202;0.154;2023-01-08T10:24:16;99304.44;;;10.90;79.24
70407;BME280;57821;52.202;0.154;2023-01-08T10:29:33;99315.34;;;10.72;78.37
70407;BME280;57821;52.202;0.154;2023-01-08T10:32:08;99302.75;;;10.58;78.31
70407;BME280;57821;52.202;0.154;2023-01-08T10:34:48;99286.50;;;10.51;79.30
70407;BME280;57821;52.202;0.154;2023-01-08T10:39:47;99304.84;;;10.76;80.25
70407;BME280;57821;52.202;0.154;2023-01-08T10:42:16;99297.75;;;10.83;79.43
70407;BME280;57821;52.202;0.154;2023-01-08T10:45:05;99304.09;;;11.02;77.40
70407;BME280;57821;52.202;0.154;2023-01-08T10:47:34;99299.63;;;11.07;78.24
70407;BME280;57821;52.202;0.154;2023-01-08T10:50:03;99291.84;;;11.07;77.76
70407;BME280;57821;52.202;0.154;2023-01-08T10:52:32;99295.25;;;11.09;77.63
70407;BME280;57821;52.202;0.154;2023-01-08T10:55:24;99281.56;;;11.04;76.75
70407;BME280;57821;52.202;0.154;2023-01-08T10:58:02;99272.91;;;11.05;77.21
70407;BME280;57821;52.202;0.154;2023-01-08T11:00:31;99270.31;;;11.05;76.50
70407;BME280;57821;52.202;0.154;2023-01-08T11:03:00;99272.94;;;11.03;76.89
70407;BME280;57821;52.202;0.154;2023-01-08T11:05:30;99267.28;;;10.89;76.62
70407;BME280;57821;52.202;0.154;2023-01-08T11:07:57;99260.69;;;10.78;77.05
70407;BME280;57821;52.202;0.154;2023-01-08T11:10:26;99253.34;;;10.64;77.05
70407;BME280;57821;52.202;0.154;2023-01-08T11:12:55;99257.63;;;10.65;76.77
70407;BME280;57821;52.202;0.154;2023-01-08T11:15:31;99252.69;;;10.56;76.74
70407;BME280;57821;52.202;0.154;2023-01-08T11:18:18;99243.47;;;10.46;76.53
70407;BME280;57821;52.202;0.154;2023-01-08T11:20:46;99236.88;;;10.34;77.19
70407;BME280;57821;52.202;0.154;2023-01-08T11:23:21;99216.38;;;10.25;77.34
70407;BME280;57821;52.202;0.154;2023-01-08T11:25:59;99234.56;;;10.23;77.07
70407;BME280;57821;52.202;0.154;2023-01-08T11:28:32;99210.56;;;10.15;76.82
70407;BME280;57821;52.202;0.154;2023-01-08T11:31:14;99214.44;;;9.99;76.19
70407;BME280;57821;52.202;0.154;2023-01-08T11:33:43;99229.22;;;9.96;76.09
70407;BME280;57821;52.202;0.154;2023-01-08T11:36:43;99225.22;;;9.84;76.03
70407;BME280;57821;52.202;0.154;2023-01-08T11:39:12;99209.28;;;9.65;76.22
70407;BME280;57821;52.202;0.154;2023-01-08T11:41:50;99213.66;;;9.62;76.77
70407;BME280;57821;52.202;0.154;2023-01-08T12:03:33;99173.13;;;8.88;78.79
70407;BME280;57821;52.202;0.154;2023-01-08T12:11:31;99130.59;;;8.63;79.96
70407;BME280;57821;52.202;0.154;2023-01-08T12:14:28;99158.22;;;8.61;81.00
70407;BME280;57821;52.202;0.154;2023-01-08T12:23:12;99145.06;;;8.29;82.46
70407;BME280;57821;52.202;0.154;2023-01-08T12:34:11;99105.94;;;8.05;84.76
70407;BME280;57821;52.202;0.154;2023-01-08T12:36:47;99095.72;;;8.01;85.14
70407;BME280;57821;52.202;0.154;2023-01-08T12:39:26;99100.91;;;7.99;85.37
70407;BME280;57821;52.202;0.154;2023-01-08T12:42:21;99085.53;;;7.93;86.60
70407;BME280;57821;52.202;0.154;2023-01-08T12:44:53;99083.97;;;7.86;86.21
70407;BME280;57821;52.202;0.154;2023-01-08T12:47:24;99086.50;;;7.88;87.07
70407;BME280;57821;52.202;0.154;2023-01-08T12:50:04;99082.28;;;7.85;87.33
70407;BME280;57821;52.202;0.154;2023-01-08T12:52:43;99082.19;;;7.88;87.15
70407;BME280;57821;52.202;0.154;2023-01-08T12:55:38;99087.34;;;7.88;87.89
70407;BME280;57821;52.202;0.154;2023-01-08T12:58:30;99071.09;;;7.84;87.87
70407;BME280;57821;52.202;0.154;2023-01-08T13:01:26;99086.47;;;7.91;87.94
70407;BME280;57821;52.202;0.154;2023-01-08T13:04:00;99065.00;;;7.87;87.83
70407;BME280;57821;52.202;0.154;2023-01-08T13:06:27;99053.94;;;7.82;88.09
70407;BME280;57821;52.202;0.154;2023-01-08T13:08:55;99060.78;;;7.83;87.90
70407;BME280;57821;52.202;0.154;2023-01-08T13:11:29;99052.19;;;7.82;87.89
70407;BME280;57821;52.202;0.154;2023-01-08T13:13:59;99055.50;;;7.91;87.53
70407;BME280;57821;52.202;0.154;2023-01-08T13:16:26;99052.09;;;7.87;87.36
70407;BME280;57821;52.202;0.154;2023-01-08T13:18:58;99042.69;;;7.86;87.32
70407;BME280;57821;52.202;0.154;2023-01-08T13:21:37;99040.94;;;7.87;87.94
70407;BME280;57821;52.202;0.154;2023-01-08T13:24:38;99028.03;;;7.87;88.34
70407;BME280;57821;52.202;0.154;2023-01-08T13:27:26;99026.31;;;7.87;88.28
70407;BME280;57821;52.202;0.154;2023-01-08T13:29:54;99010.81;;;7.87;87.84
70407;BME280;57821;52.202;0.154;2023-01-08T13:32:43;98994.47;;;7.88;87.92
70407;BME280;57821;52.202;0.154;2023-01-08T13:37:43;98996.09;;;7.92;87.98
70407;BME280;57821;52.202;0.154;2023-01-08T13:40:48;99001.25;;;7.92;87.94
70407;BME280;57821;52.202;0.154;2023-01-08T13:43:20;99008.16;;;7.92;86.94
70407;BME280;57821;52.202;0.154;2023-01-08T13:48:29;98997.00;;;7.91;86.52
70407;BME280;57821;52.202;0.154;2023-01-08T13:50:57;98992.69;;;7.92;86.76
70407;BME280;57821;52.202;0.154;2023-01-08T13:53:24;98995.28;;;7.90;86.76
70407;BME280;57821;52.202;0.154;2023-01-08T13:55:59;98980.69;;;7.89;87.78
70407;BME280;57821;52.202;0.154;2023-01-08T13:58:30;98984.09;;;7.91;88.21
70407;BME280;57821;52.202;0.154;2023-01-08T14:00:59;98973.81;;;7.88;88.16
70407;BME280;57821;52.202;0.154;2023-01-08T14:03:35;98961.06;;;7.80;88.69
70407;BME280;57821;52.202;0.154;2023-01-08T14:08:52;98953.38;;;7.79;89.45
70407;BME280;57821;52.202;0.154;2023-01-08T14:11:19;98949.00;;;7.81;89.92
70407;BME280;57821;52.202;0.154;2023-01-08T14:13:48;98938.78;;;7.78;89.74
70407;BME280;57821;52.202;0.154;2023-01-08T14:16:15;98929.41;;;7.74;90.30
70407;BME280;57821;52.202;0.154;2023-01-08T14:18:43;98917.56;;;7.64;89.96
70407;BME280;57821;52.202;0.154;2023-01-08T14:21:11;98923.53;;;7.67;89.99
70407;BME280;57821;52.202;0.154;2023-01-08T14:23:41;98910.78;;;7.60;90.97
70407;BME280;57821;52.202;0.154;2023-01-08T14:26:25;98902.16;;;7.61;91.10
70407;BME280;57821;52.202;0.154;2023-01-08T14:28:53;98889.38;;;7.56;91.56
70407;BME280;57821;52.202;0.154;2023-01-08T14:31:21;98896.31;;;7.53;90.80
70407;BME280;57821;52.202;0.154;2023-01-08T14:33:49;98890.44;;;7.46;91.49
70407;BME280;57821;52.202;0.154;2023-01-08T14:36:18;98905.88;;;7.48;90.56
70407;BME280;57821;52.202;0.154;2023-01-08T14:38:46;98903.31;;;7.46;91.69